createdAt,value
2024-02-01T00:04:02.538Z,10.90
2024-02-01T00:09:07.401Z,11.37
2024-02-01T00:14:10.853Z,11.20
2024-02-01T00:19:14.297Z,11.23
2024-02-01T00:24:20.156Z,11.10
2024-02-01T00:29:23.511Z,10.47
2024-02-01T00:34:26.917Z,10.80
2024-02-01T00:39:31.585Z,9.67
2024-02-01T00:44:34.908Z,10.87
2024-02-01T00:49:38.421Z,10.23
2024-02-01T00:54:43.079Z,9.87
2024-02-01T00:59:46.515Z,9.23
2024-02-01T01:04:49.860Z,9.90
2024-02-01T01:09:54.618Z,8.97
2024-02-01T01:14:57.883Z,9.67
2024-02-01T01:20:04.545Z,7.77
2024-02-01T01:25:09.696Z,8.23
2024-02-01T01:30:14.220Z,8.93
2024-02-01T01:35:17.594Z,9.00
2024-02-01T01:40:22.248Z,8.17
2024-02-01T01:45:25.557Z,8.87
2024-02-01T01:50:29.282Z,8.93
2024-02-01T01:55:34.135Z,8.40
2024-02-01T02:00:37.435Z,8.77
2024-02-01T02:05:42.540Z,7.87
2024-02-01T02:10:47.384Z,7.87
2024-02-01T02:15:50.623Z,8.57
2024-02-01T02:20:57.747Z,7.33
2024-02-01T02:26:03.447Z,7.80
2024-02-01T02:31:06.845Z,7.73
2024-02-01T02:36:11.465Z,7.20
2024-02-01T02:41:17.789Z,7.83
2024-02-01T02:46:21.273Z,9.37
2024-02-01T02:51:24.551Z,8.80
2024-02-01T02:56:29.184Z,8.17
2024-02-01T03:01:32.755Z,9.30
2024-02-01T03:06:36.595Z,10.23
2024-02-01T03:11:41.347Z,9.47
2024-02-01T03:16:44.678Z,8.27
2024-02-01T03:21:49.626Z,10.70
2024-02-01T03:26:54.255Z,9.80
2024-02-01T03:31:57.840Z,10.27
2024-02-01T03:37:02.921Z,8.70
2024-02-01T03:42:09.137Z,9.20
2024-02-01T03:47:12.480Z,8.60
2024-02-01T03:52:21.776Z,8.70
2024-02-01T03:57:27.151Z,8.13
2024-02-01T04:02:30.414Z,7.73
2024-02-01T04:07:41.015Z,8.23
2024-02-01T04:12:45.687Z,8.30
2024-02-01T04:17:50.487Z,7.73
2024-02-01T04:22:55.132Z,7.83
2024-02-01T04:27:59.938Z,8.73
2024-02-01T04:33:03.846Z,8.23
2024-02-01T04:38:07.158Z,8.70
2024-02-01T04:43:11.821Z,8.80
2024-02-01T04:48:15.317Z,8.27
2024-02-01T04:53:18.673Z,9.20
2024-02-01T04:58:23.924Z,8.33
2024-02-01T05:03:29.770Z,7.83
2024-02-01T05:08:33.555Z,8.07
2024-02-01T05:13:38.328Z,7.30
2024-02-01T05:18:42.160Z,7.13
2024-02-01T05:23:50.772Z,6.47
2024-02-01T05:28:55.463Z,6.47
2024-02-01T05:33:58.915Z,6.47
2024-02-01T05:39:06.957Z,5.30
2024-02-01T05:44:13.864Z,4.53
2024-02-01T05:49:19.952Z,4.20
2024-02-01T05:54:23.658Z,4.70
2024-02-01T05:59:28.316Z,4.07
2024-02-01T06:04:31.576Z,4.47
2024-02-01T06:09:34.972Z,4.10
2024-02-01T06:14:39.849Z,4.10
2024-02-01T06:19:43.311Z,4.13
2024-02-01T06:24:46.664Z,4.82
2024-02-01T06:29:51.440Z,4.50
2024-02-01T06:35:00.259Z,4.07
2024-02-01T06:40:29.918Z,5.93
2024-02-01T06:45:43.754Z,3.50
2024-02-01T06:50:59.132Z,3.13
2024-02-01T06:56:09.050Z,3.33
2024-02-01T07:01:35.278Z,3.42
2024-02-01T07:06:40.666Z,3.30
2024-02-01T07:12:00.005Z,3.27
2024-02-01T07:17:28.716Z,3.28
2024-02-01T07:22:41.238Z,3.78
2024-02-01T07:28:02.111Z,3.67
2024-02-01T07:33:24.269Z,3.13
2024-02-01T07:38:45.145Z,2.72
2024-02-01T07:44:05.909Z,3.20
2024-02-01T07:49:28.417Z,3.20
2024-02-01T07:54:49.169Z,3.28
2024-02-01T07:59:52.512Z,2.80
2024-02-01T08:05:14.451Z,3.43
2024-02-01T08:10:20.582Z,3.08
2024-02-01T08:15:25.530Z,3.20
2024-02-01T08:20:36.105Z,3.03
2024-02-01T08:25:41.995Z,3.20
2024-02-01T08:30:46.742Z,2.80
2024-02-01T08:35:51.367Z,2.47
2024-02-01T08:40:54.793Z,3.05
2024-02-01T08:45:58.182Z,2.95
2024-02-01T08:51:03.793Z,2.35
2024-02-01T08:56:07.705Z,2.80
2024-02-01T09:01:24.640Z,2.92
2024-02-01T09:06:30.045Z,2.85
2024-02-01T09:11:33.410Z,2.33
2024-02-01T09:16:36.779Z,2.80
2024-02-01T09:21:41.941Z,2.90
2024-02-01T09:26:45.227Z,2.22
2024-02-01T09:31:50.131Z,2.63
2024-02-01T09:36:54.816Z,2.45
2024-02-01T09:41:59.474Z,3.08
2024-02-01T09:47:05.953Z,3.00
2024-02-01T09:52:11.192Z,3.10
2024-02-01T09:57:16.795Z,3.20
2024-02-01T10:02:20.078Z,2.90
2024-02-01T10:07:25.857Z,3.00
2024-02-01T10:12:30.534Z,2.55
2024-02-01T10:17:33.897Z,2.60
2024-02-01T10:22:38.649Z,2.33
2024-02-01T10:27:41.934Z,2.72
2024-02-01T10:32:51.077Z,2.53
2024-02-01T10:37:56.825Z,2.88
2024-02-01T10:43:03.001Z,2.92
2024-02-01T10:48:11.809Z,3.17
2024-02-01T10:53:18.795Z,2.50
2024-02-01T10:58:23.126Z,2.15
2024-02-01T11:03:28.717Z,2.92
2024-02-01T11:08:35.378Z,2.40
2024-02-01T11:13:38.695Z,2.60
2024-02-01T11:18:51.801Z,2.60
2024-02-01T11:24:06.983Z,2.70
2024-02-01T11:29:11.842Z,2.67
2024-02-01T11:34:15.410Z,2.20
2024-02-01T11:39:20.683Z,2.28
2024-02-01T11:44:28.139Z,1.80
2024-02-01T11:49:32.729Z,2.20
2024-02-01T11:54:37.637Z,2.20
2024-02-01T11:59:41.024Z,2.25
2024-02-01T12:04:47.310Z,1.90
2024-02-01T12:09:52.385Z,2.88
2024-02-01T12:14:55.949Z,2.53
2024-02-01T12:19:59.487Z,2.38
2024-02-01T12:25:04.614Z,2.15
2024-02-01T12:30:12.743Z,2.47
2024-02-01T12:35:18.272Z,2.25
2024-02-01T12:40:23.556Z,1.70
2024-02-01T12:45:26.864Z,1.95
2024-02-01T12:50:37.925Z,2.33
2024-02-01T12:55:43.290Z,1.38
2024-02-01T13:00:48.575Z,1.58
2024-02-01T13:05:52.400Z,1.65
2024-02-01T13:10:57.378Z,1.70
2024-02-01T13:16:00.753Z,1.80
2024-02-01T13:21:05.577Z,1.63
2024-02-01T13:26:11.434Z,1.42
2024-02-01T13:31:14.831Z,2.17
2024-02-01T13:36:18.331Z,1.65
2024-02-01T13:41:23.200Z,1.45
2024-02-01T13:46:26.470Z,1.48
2024-02-01T13:51:29.735Z,1.70
2024-02-01T13:56:34.365Z,1.80
2024-02-01T14:01:37.713Z,1.55
2024-02-01T14:06:41.088Z,1.52
2024-02-01T14:11:45.851Z,1.25
2024-02-01T14:16:49.168Z,2.22
2024-02-01T14:21:53.015Z,1.75
2024-02-01T14:26:57.717Z,1.25
2024-02-01T14:32:01.064Z,1.10
2024-02-01T14:37:04.497Z,1.23
2024-02-01T14:42:09.766Z,1.30
2024-02-01T14:47:13.109Z,1.60
2024-02-01T14:52:18.368Z,1.10
2024-02-01T14:57:23.472Z,1.00
2024-02-01T15:02:26.995Z,1.30
2024-02-01T15:07:30.282Z,1.10
2024-02-01T15:12:34.940Z,1.02
2024-02-01T15:17:38.321Z,1.63
2024-02-01T15:22:42.420Z,1.23
2024-02-01T15:27:47.145Z,1.00
2024-02-01T15:32:50.568Z,1.40
2024-02-01T15:37:53.956Z,1.02
2024-02-01T15:43:00.495Z,1.15
2024-02-01T15:48:04.112Z,1.30
2024-02-01T15:53:09.640Z,1.35
2024-02-01T15:58:14.527Z,1.30
2024-02-01T16:03:18.073Z,1.20
2024-02-01T16:08:21.889Z,1.33
2024-02-01T16:13:26.990Z,1.95
2024-02-01T16:18:39.121Z,1.20
2024-02-01T16:23:46.925Z,1.40
2024-02-01T16:28:51.995Z,1.42
2024-02-01T16:33:59.728Z,1.60
2024-02-01T16:39:05.449Z,1.65
2024-02-01T16:44:20.954Z,1.40
2024-02-01T16:49:25.148Z,1.80
2024-02-01T16:54:29.134Z,2.20
2024-02-01T16:59:33.899Z,1.92
2024-02-01T17:04:41.196Z,2.05
2024-02-01T17:09:44.752Z,1.70
2024-02-01T17:14:49.470Z,1.60
2024-02-01T17:19:53.337Z,1.60
2024-02-01T17:24:58.091Z,1.70
2024-02-01T17:30:08.501Z,1.50
2024-02-01T17:35:11.993Z,2.40
2024-02-01T17:40:16.583Z,1.50
2024-02-01T17:45:38.250Z,1.83
2024-02-01T17:50:46.226Z,1.67
2024-02-01T17:55:52.665Z,2.17
2024-02-01T18:00:57.691Z,1.73
2024-02-01T18:06:02.518Z,2.05
2024-02-01T18:11:07.037Z,1.50
2024-02-01T18:16:15.884Z,1.48
2024-02-01T18:21:23.161Z,1.45
2024-02-01T18:26:27.130Z,1.42
2024-02-01T18:31:32.147Z,1.10
2024-02-01T18:36:37.371Z,1.45
2024-02-01T18:41:42.156Z,1.38
2024-02-01T18:46:49.964Z,1.30
2024-02-01T18:52:02.359Z,1.35
2024-02-01T18:57:08.635Z,1.65
2024-02-01T19:02:42.570Z,1.02
2024-02-01T19:07:47.997Z,1.10
2024-02-01T19:12:53.031Z,0.82
2024-02-01T19:17:58.079Z,1.10
2024-02-01T19:23:01.635Z,1.00
2024-02-01T19:28:06.203Z,0.87
2024-02-01T19:33:18.133Z,0.87
2024-02-01T19:38:26.556Z,0.85
2024-02-01T19:43:33.070Z,0.90
2024-02-01T19:48:37.883Z,1.05
2024-02-01T19:53:41.889Z,0.90
2024-02-01T19:58:45.589Z,1.02
2024-02-01T20:03:51.588Z,0.80
2024-02-01T20:08:57.646Z,0.82
2024-02-01T20:14:03.816Z,1.03
2024-02-01T20:19:09.900Z,1.10
2024-02-01T20:24:18.729Z,0.80
2024-02-01T20:29:22.620Z,0.73
2024-02-01T20:34:40.239Z,0.60
2024-02-01T20:39:45.019Z,0.90
2024-02-01T20:44:49.199Z,0.70
2024-02-01T20:49:54.948Z,0.83
2024-02-01T20:55:25.214Z,0.60
2024-02-01T21:00:29.004Z,0.73
2024-02-01T21:05:38.933Z,0.60
2024-02-01T21:10:50.897Z,0.70
2024-02-01T21:15:56.199Z,0.73
2024-02-01T21:21:05.876Z,0.70
2024-02-01T21:26:19.394Z,0.70
2024-02-01T21:31:42.635Z,0.68
2024-02-01T21:36:57.201Z,0.90
2024-02-01T21:42:00.699Z,0.60
2024-02-01T21:47:05.108Z,0.70
2024-02-01T21:52:10.062Z,0.93
2024-02-01T21:57:13.626Z,0.90
2024-02-01T22:02:17.144Z,0.80
2024-02-01T22:07:21.843Z,0.75
2024-02-01T22:12:25.367Z,0.65
2024-02-01T22:17:28.994Z,0.73
2024-02-01T22:22:36.860Z,0.70
2024-02-01T22:27:40.368Z,0.97
2024-02-01T22:32:44.821Z,0.77
2024-02-01T22:37:49.684Z,0.80
2024-02-01T22:42:53.063Z,0.80
2024-02-01T22:47:56.510Z,0.90
2024-02-01T22:53:01.888Z,0.55
2024-02-01T22:58:07.819Z,0.87
2024-02-01T23:03:11.385Z,0.87
2024-02-01T23:08:16.260Z,0.60
2024-02-01T23:13:19.719Z,0.70
2024-02-01T23:18:23.092Z,0.80
2024-02-01T23:23:28.581Z,0.60
2024-02-01T23:28:31.959Z,0.60
2024-02-01T23:33:38.170Z,0.87
2024-02-01T23:38:43.115Z,0.90
2024-02-01T23:43:46.505Z,0.77
2024-02-01T23:48:49.878Z,0.77
2024-02-01T23:53:54.741Z,0.80
2024-02-01T23:58:58.320Z,0.80
